sensor_id;sensor_type;location;lat;lon;timestamp;pressure;altitude;pressure_sealevel;temperature;humidity
51460;BME280;37534;39.772;2.718;2022-09-09T00:00:40;101222.56;;;24.88;100.00
51460;BME280;37534;39.772;2.718;2022-09-09T00:03:15;101225.09;;;24.90;100.00
51460;BME280;37534;39.772;2.718;2022-09-09T00:08:15;101216.56;;;24.75;100.00
51460;BME280;37534;39.772;2.718;2022-09-09T00:10:43;101227.09;;;24.75;100.00
51460;BME280;37534;39.772;2.718;2022-09-09T00:13:27;101222.94;;;24.72;100.00
51460;BME280;37534;39.772;2.718;2022-09-09T00:16:15;101229.63;;;24.65;100.00
51460;BME280;37534;39.772;2.718;2022-09-09T00:19:00;101227.22;;;24.62;100.00
51460;BME280;37534;39.772;2.718;2022-09-09T00:21:36;101228.44;;;24.58;100.00
51460;BME280;37534;39.772;2.718;2022-09-09T00:27:08;101222.81;;;24.62;100.00
51460;BME280;37534;39.772;2.718;2022-09-09T00:29:43;101223.28;;;24.56;100.00
51460;BME280;37534;39.772;2.718;2022-09-09T00:32:18;101226.00;;;24.43;100.00
51460;BME280;37534;39.772;2.718;2022-09-09T00:34:52;101229.56;;;24.31;100.00
51460;BME280;37534;39.772;2.718;2022-09-09T00:37:21;101222.84;;;24.27;100.00
51460;BME280;37534;39.772;2.718;2022-09-09T00:39:48;101203.75;;;24.12;100.00
51460;BME280;37534;39.772;2.718;2022-09-09T00:42:25;101215.16;;;24.24;100.00
51460;BME280;37534;39.772;2.718;2022-09-09T00:44:58;101199.78;;;24.18;100.00
51460;BME280;37534;39.772;2.718;2022-09-09T00:56:15;101209.16;;;24.22;100.00
51460;BME280;37534;39.772;2.718;2022-09-09T01:01:30;101215.25;;;24.11;100.00
51460;BME280;37534;39.772;2.718;2022-09-09T01:03:56;101214.41;;;24.10;100.00
51460;BME280;37534;39.772;2.718;2022-09-09T01:06:36;101222.19;;;24.12;100.00
51460;BME280;37534;39.772;2.718;2022-09-09T01:12:12;101217.50;;;24.04;100.00
51460;BME280;37534;39.772;2.718;2022-09-09T01:17:23;101213.75;;;23.96;100.00
51460;BME280;37534;39.772;2.718;2022-09-09T01:22:55;101220.22;;;23.79;100.00
51460;BME280;37534;39.772;2.718;2022-09-09T01:28:21;101216.50;;;23.94;100.00
51460;BME280;37534;39.772;2.718;2022-09-09T01:30:47;101204.63;;;23.88;100.00
51460;BME280;37534;39.772;2.718;2022-09-09T01:33:16;101210.88;;;23.75;100.00
51460;BME280;37534;39.772;2.718;2022-09-09T01:38:16;101209.09;;;23.51;100.00
51460;BME280;37534;39.772;2.718;2022-09-09T01:40:43;101203.88;;;23.62;100.00
51460;BME280;37534;39.772;2.718;2022-09-09T01:43:09;101207.50;;;23.61;100.00
51460;BME280;37534;39.772;2.718;2022-09-09T01:45:35;101197.69;;;23.63;100.00
51460;BME280;37534;39.772;2.718;2022-09-09T01:48:02;101214.78;;;23.58;100.00
51460;BME280;37534;39.772;2.718;2022-09-09T01:50:28;101203.22;;;23.47;100.00
51460;BME280;37534;39.772;2.718;2022-09-09T01:52:57;101202.59;;;23.44;100.00
51460;BME280;37534;39.772;2.718;2022-09-09T01:58:09;101214.59;;;23.48;100.00
51460;BME280;37534;39.772;2.718;2022-09-09T02:00:41;101212.06;;;23.46;100.00
51460;BME280;37534;39.772;2.718;2022-09-09T02:03:20;101197.56;;;23.41;100.00
51460;BME280;37534;39.772;2.718;2022-09-09T02:07:07;101213.88;;;23.46;100.00
51460;BME280;37534;39.772;2.718;2022-09-09T02:09:02;101207.00;;;23.43;100.00
51460;BME280;37534;39.772;2.718;2022-09-09T02:11:30;101206.41;;;23.40;100.00
51460;BME280;37534;39.772;2.718;2022-09-09T02:14:10;101209.28;;;23.37;100.00
51460;BME280;37534;39.772;2.718;2022-09-09T02:19:15;101205.13;;;23.45;100.00
51460;BME280;37534;39.772;2.718;2022-09-09T02:21:50;101193.38;;;23.38;100.00
51460;BME280;37534;39.772;2.718;2022-09-09T02:24:16;101203.03;;;23.38;100.00
51460;BME280;37534;39.772;2.718;2022-09-09T02:26:44;101204.72;;;23.39;100.00
51460;BME280;37534;39.772;2.718;2022-09-09T02:29:16;101206.13;;;23.31;100.00
51460;BME280;37534;39.772;2.718;2022-09-09T02:31:44;101202.09;;;23.39;100.00
51460;BME280;37534;39.772;2.718;2022-09-09T02:34:13;101203.66;;;23.41;100.00
51460;BME280;37534;39.772;2.718;2022-09-09T02:36:40;101198.00;;;23.34;100.00
51460;BME280;37534;39.772;2.718;2022-09-09T02:39:08;101207.94;;;23.31;100.00
51460;BME280;37534;39.772;2.718;2022-09-09T02:41:40;101198.44;;;23.28;100.00
51460;BME280;37534;39.772;2.718;2022-09-09T02:44:10;101194.69;;;23.20;100.00
51460;BME280;37534;39.772;2.718;2022-09-09T02:47:05;101205.63;;;23.26;100.00
51460;BME280;37534;39.772;2.718;2022-09-09T02:52:05;101202.25;;;23.24;100.00
51460;BME280;37534;39.772;2.718;2022-09-09T02:54:33;101187.09;;;23.28;100.00
51460;BME280;37534;39.772;2.718;2022-09-09T02:57:25;101197.00;;;23.24;100.00
51460;BME280;37534;39.772;2.718;2022-09-09T02:59:53;101193.38;;;23.25;100.00
51460;BME280;37534;39.772;2.718;2022-09-09T03:02:22;101189.75;;;23.15;100.00
51460;BME280;37534;39.772;2.718;2022-09-09T03:04:47;101196.38;;;23.21;100.00
51460;BME280;37534;39.772;2.718;2022-09-09T03:07:17;101188.38;;;23.09;100.00
51460;BME280;37534;39.772;2.718;2022-09-09T03:09:43;101194.56;;;23.21;100.00
51460;BME280;37534;39.772;2.718;2022-09-09T03:12:10;101191.41;;;23.16;100.00
51460;BME280;37534;39.772;2.718;2022-09-09T03:14:36;101201.88;;;23.05;100.00
51460;BME280;37534;39.772;2.718;2022-09-09T03:17:04;101204.63;;;22.90;100.00
51460;BME280;37534;39.772;2.718;2022-09-09T03:19:30;101194.50;;;22.84;100.00
51460;BME280;37534;39.772;2.718;2022-09-09T03:21:57;101199.56;;;22.87;100.00
51460;BME280;37534;39.772;2.718;2022-09-09T03:24:23;101197.38;;;22.81;100.00
51460;BME280;37534;39.772;2.718;2022-09-09T03:26:49;101200.00;;;22.81;100.00
51460;BME280;37534;39.772;2.718;2022-09-09T03:29:16;101204.00;;;22.87;100.00
51460;BME280;37534;39.772;2.718;2022-09-09T03:31:42;101206.00;;;22.83;100.00
51460;BME280;37534;39.772;2.718;2022-09-09T03:34:08;101212.19;;;22.82;100.00
51460;BME280;37534;39.772;2.718;2022-09-09T03:36:34;101211.16;;;22.85;100.00
51460;BME280;37534;39.772;2.718;2022-09-09T03:39:00;101196.84;;;22.76;100.00
51460;BME280;37534;39.772;2.718;2022-09-09T03:41:26;101206.94;;;22.82;100.00
51460;BME280;37534;39.772;2.718;2022-09-09T03:43:55;101200.63;;;22.72;100.00
51460;BME280;37534;39.772;2.718;2022-09-09T03:46:22;101203.69;;;22.78;100.00
51460;BME280;37534;39.772;2.718;2022-09-09T03:48:48;101210.94;;;22.75;100.00
51460;BME280;37534;39.772;2.718;2022-09-09T03:51:14;101201.50;;;22.72;100.00
51460;BME280;37534;39.772;2.718;2022-09-09T03:53:41;101198.34;;;22.67;100.00
51460;BME280;37534;39.772;2.718;2022-09-09T03:56:07;101200.88;;;22.69;100.00
51460;BME280;37534;39.772;2.718;2022-09-09T03:58:33;101214.75;;;22.71;100.00
51460;BME280;37534;39.772;2.718;2022-09-09T04:01:05;101192.44;;;22.64;100.00
51460;BME280;37534;39.772;2.718;2022-09-09T04:03:31;101196.22;;;22.72;100.00
51460;BME280;37534;39.772;2.718;2022-09-09T04:05:58;101196.22;;;22.85;100.00
51460;BME280;37534;39.772;2.718;2022-09-09T04:08:25;101198.31;;;22.80;100.00
51460;BME280;37534;39.772;2.718;2022-09-09T04:10:51;101195.81;;;22.66;100.00
51460;BME280;37534;39.772;2.718;2022-09-09T04:13:18;101207.06;;;22.68;100.00
51460;BME280;37534;39.772;2.718;2022-09-09T04:15:50;101208.00;;;22.67;100.00
51460;BME280;37534;39.772;2.718;2022-09-09T04:18:16;101204.44;;;22.68;100.00
51460;BME280;37534;39.772;2.718;2022-09-09T04:20:42;101211.38;;;22.69;100.00
51460;BME280;37534;39.772;2.718;2022-09-09T04:23:08;101200.09;;;22.67;100.00
51460;BME280;37534;39.772;2.718;2022-09-09T04:25:34;101196.84;;;22.76;100.00
51460;BME280;37534;39.772;2.718;2022-09-09T04:28:00;101192.84;;;22.70;100.00
51460;BME280;37534;39.772;2.718;2022-09-09T04:30:25;101192.22;;;22.67;100.00
51460;BME280;37534;39.772;2.718;2022-09-09T04:32:52;101185.94;;;22.56;100.00
51460;BME280;37534;39.772;2.718;2022-09-09T04:35:18;101195.41;;;22.46;100.00
51460;BME280;37534;39.772;2.718;2022-09-09T04:37:45;101204.94;;;22.47;100.00
51460;BME280;37534;39.772;2.718;2022-09-09T04:40:11;101203.19;;;22.48;100.00
51460;BME280;37534;39.772;2.718;2022-09-09T04:42:36;101199.91;;;22.44;100.00
51460;BME280;37534;39.772;2.718;2022-09-09T04:45:03;101206.34;;;22.53;100.00
51460;BME280;37534;39.772;2.718;2022-09-09T04:47:28;101198.97;;;22.45;100.00
51460;BME280;37534;39.772;2.718;2022-09-09T04:49:54;101200.44;;;22.36;100.00
51460;BME280;37534;39.772;2.718;2022-09-09T04:52:20;101211.47;;;22.42;100.00
51460;BME280;37534;39.772;2.718;2022-09-09T04:54:46;101212.72;;;22.36;100.00
51460;BME280;37534;39.772;2.718;2022-09-09T04:57:12;101208.63;;;22.32;100.00
51460;BME280;37534;39.772;2.718;2022-09-09T04:59:37;101213.91;;;22.32;100.00
51460;BME280;37534;39.772;2.718;2022-09-09T05:02:05;101200.84;;;22.30;100.00
51460;BME280;37534;39.772;2.718;2022-09-09T05:04:30;101207.06;;;22.42;100.00
51460;BME280;37534;39.772;2.718;2022-09-09T05:06:56;101208.44;;;22.35;100.00
51460;BME280;37534;39.772;2.718;2022-09-09T05:09:22;101216.31;;;22.35;100.00
51460;BME280;37534;39.772;2.718;2022-09-09T05:11:47;101220.53;;;22.37;100.00
51460;BME280;37534;39.772;2.718;2022-09-09T05:14:14;101215.16;;;22.39;100.00
51460;BME280;37534;39.772;2.718;2022-09-09T05:16:40;101221.34;;;22.38;100.00
51460;BME280;37534;39.772;2.718;2022-09-09T05:19:06;101211.56;;;22.27;100.00
51460;BME280;37534;39.772;2.718;2022-09-09T05:21:33;101221.25;;;22.27;100.00
51460;BME280;37534;39.772;2.718;2022-09-09T05:23:59;101212.59;;;22.25;100.00
51460;BME280;37534;39.772;2.718;2022-09-09T05:26:26;101221.06;;;22.30;100.00
51460;BME280;37534;39.772;2.718;2022-09-09T05:28:51;101220.63;;;22.36;100.00
51460;BME280;37534;39.772;2.718;2022-09-09T05:31:17;101218.31;;;22.44;100.00
51460;BME280;37534;39.772;2.718;2022-09-09T05:33:45;101218.97;;;22.48;100.00
51460;BME280;37534;39.772;2.718;2022-09-09T05:36:15;101203.81;;;22.38;100.00
51460;BME280;37534;39.772;2.718;2022-09-09T05:38:42;101222.31;;;22.50;100.00
51460;BME280;37534;39.772;2.718;2022-09-09T05:41:08;101220.41;;;22.52;100.00
51460;BME280;37534;39.772;2.718;2022-09-09T05:43:35;101224.63;;;22.54;100.00
51460;BME280;37534;39.772;2.718;2022-09-09T05:46:07;101223.38;;;22.60;100.00
51460;BME280;37534;39.772;2.718;2022-09-09T05:48:44;101225.91;;;22.62;100.00
51460;BME280;37534;39.772;2.718;2022-09-09T05:51:13;101239.88;;;22.75;100.00
51460;BME280;37534;39.772;2.718;2022-09-09T05:53:43;101241.75;;;22.86;100.00
51460;BME280;37534;39.772;2.718;2022-09-09T05:56:17;101244.81;;;22.92;100.00
51460;BME280;37534;39.772;2.718;2022-09-09T05:58:43;101235.03;;;22.94;100.00
51460;BME280;37534;39.772;2.718;2022-09-09T06:01:12;101241.00;;;22.96;100.00
51460;BME280;37534;39.772;2.718;2022-09-09T06:03:40;101248.69;;;23.00;100.00
51460;BME280;37534;39.772;2.718;2022-09-09T06:06:09;101242.59;;;22.99;100.00
51460;BME280;37534;39.772;2.718;2022-09-09T06:08:37;101250.72;;;23.09;100.00
51460;BME280;37534;39.772;2.718;2022-09-09T06:11:11;101252.06;;;23.14;100.00
51460;BME280;37534;39.772;2.718;2022-09-09T06:13:39;101243.19;;;23.28;100.00
51460;BME280;37534;39.772;2.718;2022-09-09T06:16:12;101253.16;;;23.36;100.00
51460;BME280;37534;39.772;2.718;2022-09-09T06:18:38;101246.03;;;23.25;100.00
51460;BME280;37534;39.772;2.718;2022-09-09T06:21:07;101257.75;;;23.21;100.00
51460;BME280;37534;39.772;2.718;2022-09-09T06:23:34;101261.09;;;23.23;100.00
51460;BME280;37534;39.772;2.718;2022-09-09T06:26:09;101268.78;;;23.26;100.00
51460;BME280;37534;39.772;2.718;2022-09-09T06:28:36;101252.53;;;23.32;100.00
51460;BME280;37534;39.772;2.718;2022-09-09T06:31:04;101260.31;;;23.47;100.00
51460;BME280;37534;39.772;2.718;2022-09-09T06:33:34;101265.34;;;23.50;100.00
51460;BME280;37534;39.772;2.718;2022-09-09T06:36:02;101257.91;;;23.68;100.00
51460;BME280;37534;39.772;2.718;2022-09-09T06:38:29;101269.72;;;23.99;100.00
51460;BME280;37534;39.772;2.718;2022-09-09T06:40:56;101257.69;;;24.19;100.00
51460;BME280;37534;39.772;2.718;2022-09-09T06:43:23;101265.06;;;24.38;100.00
51460;BME280;37534;39.772;2.718;2022-09-09T06:45:54;101273.28;;;24.58;100.00
51460;BME280;37534;39.772;2.718;2022-09-09T06:48:19;101266.22;;;24.81;100.00
51460;BME280;37534;39.772;2.718;2022-09-09T06:50:45;101260.13;;;24.92;100.00
51460;BME280;37534;39.772;2.718;2022-09-09T06:53:10;101259.38;;;25.01;100.00
51460;BME280;37534;39.772;2.718;2022-09-09T06:55:36;101265.75;;;25.10;100.00
51460;BME280;37534;39.772;2.718;2022-09-09T06:58:01;101271.66;;;25.25;100.00
51460;BME280;37534;39.772;2.718;2022-09-09T07:00:27;101265.13;;;25.40;100.00
51460;BME280;37534;39.772;2.718;2022-09-09T07:02:53;101273.25;;;25.71;100.00
51460;BME280;37534;39.772;2.718;2022-09-09T07:05:19;101275.03;;;26.14;100.00
51460;BME280;37534;39.772;2.718;2022-09-09T07:07:44;101277.03;;;26.85;100.00
51460;BME280;37534;39.772;2.718;2022-09-09T07:10:12;101267.66;;;27.62;94.79
51460;BME280;37534;39.772;2.718;2022-09-09T07:12:37;101284.72;;;28.85;88.40
51460;BME280;37534;39.772;2.718;2022-09-09T07:15:03;101267.81;;;30.05;79.23
51460;BME280;37534;39.772;2.718;2022-09-09T07:17:29;101284.31;;;31.21;72.40
51460;BME280;37534;39.772;2.718;2022-09-09T07:19:54;101279.81;;;32.14;65.43
51460;BME280;37534;39.772;2.718;2022-09-09T07:22:20;101286.66;;;33.13;61.30
51460;BME280;37534;39.772;2.718;2022-09-09T07:24:45;101270.06;;;33.96;57.54
51460;BME280;37534;39.772;2.718;2022-09-09T07:27:11;101284.69;;;35.06;53.73
51460;BME280;37534;39.772;2.718;2022-09-09T07:29:36;101280.31;;;35.77;51.03
51460;BME280;37534;39.772;2.718;2022-09-09T07:32:02;101281.25;;;36.41;48.01
51460;BME280;37534;39.772;2.718;2022-09-09T07:34:29;101276.84;;;36.05;48.18
51460;BME280;37534;39.772;2.718;2022-09-09T07:36:55;101285.25;;;36.87;45.20
51460;BME280;37534;39.772;2.718;2022-09-09T07:39:22;101286.66;;;37.31;44.07
51460;BME280;37534;39.772;2.718;2022-09-09T07:41:48;101289.84;;;38.01;42.01
51460;BME280;37534;39.772;2.718;2022-09-09T07:44:19;101294.22;;;38.02;39.97
51460;BME280;37534;39.772;2.718;2022-09-09T07:46:46;101298.78;;;37.95;39.53
51460;BME280;37534;39.772;2.718;2022-09-09T07:49:13;101292.13;;;37.71;37.40
51460;BME280;37534;39.772;2.718;2022-09-09T07:51:41;101298.78;;;38.22;38.01
51460;BME280;37534;39.772;2.718;2022-09-09T07:54:46;101301.00;;;38.65;36.56
51460;BME280;37534;39.772;2.718;2022-09-09T07:57:12;101301.91;;;39.43;35.47
51460;BME280;37534;39.772;2.718;2022-09-09T07:59:37;101313.69;;;40.12;34.99
51460;BME280;37534;39.772;2.718;2022-09-09T08:02:03;101312.19;;;40.60;32.73
51460;BME280;37534;39.772;2.718;2022-09-09T08:04:29;101304.94;;;40.72;32.35
51460;BME280;37534;39.772;2.718;2022-09-09T08:07:00;101310.00;;;40.50;33.55
51460;BME280;37534;39.772;2.718;2022-09-09T08:09:27;101323.59;;;40.18;34.76
51460;BME280;37534;39.772;2.718;2022-09-09T08:11:55;101310.81;;;40.51;35.00
51460;BME280;37534;39.772;2.718;2022-09-09T08:14:22;101318.75;;;40.45;35.01
51460;BME280;37534;39.772;2.718;2022-09-09T08:16:49;101303.47;;;41.25;34.91
51460;BME280;37534;39.772;2.718;2022-09-09T08:19:15;101313.91;;;41.40;34.95
51460;BME280;37534;39.772;2.718;2022-09-09T08:21:43;101318.88;;;42.21;33.78
51460;BME280;37534;39.772;2.718;2022-09-09T08:24:09;101323.53;;;42.02;33.23
51460;BME280;37534;39.772;2.718;2022-09-09T08:26:38;101306.66;;;42.70;32.71
51460;BME280;37534;39.772;2.718;2022-09-09T08:29:06;101315.84;;;42.93;32.88
51460;BME280;37534;39.772;2.718;2022-09-09T08:31:33;101317.28;;;43.41;30.99
51460;BME280;37534;39.772;2.718;2022-09-09T08:34:00;101325.09;;;43.55;31.11
51460;BME280;37534;39.772;2.718;2022-09-09T08:36:29;101332.25;;;43.73;30.91
51460;BME280;37534;39.772;2.718;2022-09-09T08:38:57;101313.91;;;42.17;32.31
51460;BME280;37534;39.772;2.718;2022-09-09T08:43:50;101329.38;;;42.17;33.75
51460;BME280;37534;39.772;2.718;2022-09-09T08:46:30;101324.41;;;42.26;33.82
51460;BME280;37534;39.772;2.718;2022-09-09T08:49:14;101323.97;;;42.81;32.71
51460;BME280;37534;39.772;2.718;2022-09-09T08:51:44;101325.63;;;43.52;32.16
51460;BME280;37534;39.772;2.718;2022-09-09T08:54:10;101324.88;;;43.90;31.35
51460;BME280;37534;39.772;2.718;2022-09-09T08:56:36;101317.78;;;44.23;31.29
51460;BME280;37534;39.772;2.718;2022-09-09T08:59:03;101323.25;;;44.45;30.33
51460;BME280;37534;39.772;2.718;2022-09-09T09:04:56;101316.88;;;45.28;28.69
51460;BME280;37534;39.772;2.718;2022-09-09T09:07:40;101320.41;;;44.79;29.62
51460;BME280;37534;39.772;2.718;2022-09-09T09:13:17;101329.66;;;43.83;31.80
51460;BME280;37534;39.772;2.718;2022-09-09T09:15:44;101321.63;;;44.88;29.93
51460;BME280;37534;39.772;2.718;2022-09-09T09:18:13;101329.38;;;45.29;29.21
51460;BME280;37534;39.772;2.718;2022-09-09T09:23:24;101329.38;;;45.29;29.46
51460;BME280;37534;39.772;2.718;2022-09-09T09:25:54;101336.56;;;44.64;29.93
51460;BME280;37534;39.772;2.718;2022-09-09T09:28:27;101327.69;;;44.73;30.32
51460;BME280;37534;39.772;2.718;2022-09-09T09:31:09;101336.19;;;45.53;28.49
51460;BME280;37534;39.772;2.718;2022-09-09T09:33:49;101326.22;;;46.07;27.44
51460;BME280;37534;39.772;2.718;2022-09-09T09:36:16;101320.00;;;46.59;27.09
51460;BME280;37534;39.772;2.718;2022-09-09T09:38:59;101330.53;;;47.03;26.43
51460;BME280;37534;39.772;2.718;2022-09-09T09:41:42;101331.59;;;46.97;25.86
51460;BME280;37534;39.772;2.718;2022-09-09T09:44:29;101333.78;;;46.95;26.21
51460;BME280;37534;39.772;2.718;2022-09-09T09:47:12;101337.69;;;47.35;25.56
51460;BME280;37534;39.772;2.718;2022-09-09T09:49:39;101331.34;;;47.04;26.36
51460;BME280;37534;39.772;2.718;2022-09-09T09:52:06;101331.41;;;47.35;26.12
51460;BME280;37534;39.772;2.718;2022-09-09T09:54:37;101343.38;;;46.40;27.14
51460;BME280;37534;39.772;2.718;2022-09-09T09:57:14;101334.16;;;46.51;26.58
51460;BME280;37534;39.772;2.718;2022-09-09T09:59:41;101332.72;;;47.01;26.76
51460;BME280;37534;39.772;2.718;2022-09-09T10:04:38;101337.06;;;45.91;27.68
51460;BME280;37534;39.772;2.718;2022-09-09T10:07:20;101330.88;;;46.49;27.24
51460;BME280;37534;39.772;2.718;2022-09-09T10:09:54;101328.56;;;46.89;26.82
51460;BME280;37534;39.772;2.718;2022-09-09T10:26:05;101339.41;;;45.78;27.94
51460;BME280;37534;39.772;2.718;2022-09-09T10:29:18;101338.69;;;45.92;27.66
51460;BME280;37534;39.772;2.718;2022-09-09T10:32:40;101337.09;;;46.39;27.69
51460;BME280;37534;39.772;2.718;2022-09-09T10:35:16;101346.34;;;46.38;27.21
51460;BME280;37534;39.772;2.718;2022-09-09T10:37:49;101350.09;;;46.22;28.07
51460;BME280;37534;39.772;2.718;2022-09-09T10:42:54;101344.97;;;46.31;27.64
51460;BME280;37534;39.772;2.718;2022-09-09T10:46:12;101345.75;;;45.56;28.36
51460;BME280;37534;39.772;2.718;2022-09-09T10:51:02;101339.66;;;45.76;28.38
51460;BME280;37534;39.772;2.718;2022-09-09T10:53:45;101331.28;;;45.55;28.62
51460;BME280;37534;39.772;2.718;2022-09-09T10:56:16;101325.31;;;45.59;28.06
51460;BME280;37534;39.772;2.718;2022-09-09T11:01:27;101338.56;;;45.72;28.06
51460;BME280;37534;39.772;2.718;2022-09-09T11:03:59;101341.22;;;46.04;28.04
51460;BME280;37534;39.772;2.718;2022-09-09T11:06:32;101338.88;;;46.18;27.74
51460;BME280;37534;39.772;2.718;2022-09-09T11:09:02;101338.16;;;45.96;28.00
51460;BME280;37534;39.772;2.718;2022-09-09T11:11:46;101329.22;;;45.68;28.64
51460;BME280;37534;39.772;2.718;2022-09-09T11:17:08;101305.94;;;45.82;27.67
51460;BME280;37534;39.772;2.718;2022-09-09T11:19:41;101336.06;;;46.08;27.99
51460;BME280;37534;39.772;2.718;2022-09-09T11:22:33;101337.44;;;46.48;27.62
51460;BME280;37534;39.772;2.718;2022-09-09T11:30:20;101337.50;;;46.74;26.80
51460;BME280;37534;39.772;2.718;2022-09-09T11:36:19;101334.09;;;46.46;27.43
51460;BME280;37534;39.772;2.718;2022-09-09T11:38:51;101339.75;;;45.86;27.80
51460;BME280;37534;39.772;2.718;2022-09-09T11:41:19;101336.75;;;45.88;28.41
51460;BME280;37534;39.772;2.718;2022-09-09T11:43:51;101336.25;;;45.04;29.50
51460;BME280;37534;39.772;2.718;2022-09-09T11:46:20;101335.34;;;44.98;29.48
51460;BME280;37534;39.772;2.718;2022-09-09T11:49:02;101336.59;;;45.13;29.24
51460;BME280;37534;39.772;2.718;2022-09-09T11:51:30;101338.00;;;45.43;28.52
51460;BME280;37534;39.772;2.718;2022-09-09T11:54:28;101335.03;;;44.95;28.99
51460;BME280;37534;39.772;2.718;2022-09-09T11:56:46;101329.66;;;45.00;29.86
51460;BME280;37534;39.772;2.718;2022-09-09T11:59:21;101342.81;;;45.95;28.32
51460;BME280;37534;39.772;2.718;2022-09-09T12:07:33;101341.16;;;44.24;30.51
51460;BME280;37534;39.772;2.718;2022-09-09T12:10:19;101331.63;;;45.05;29.72
51460;BME280;37534;39.772;2.718;2022-09-09T12:12:46;101323.09;;;45.50;29.03
51460;BME280;37534;39.772;2.718;2022-09-09T12:17:57;101336.75;;;45.55;28.52
51460;BME280;37534;39.772;2.718;2022-09-09T12:20:34;101336.09;;;46.56;27.71
51460;BME280;37534;39.772;2.718;2022-09-09T12:23:23;101339.78;;;46.97;26.88
51460;BME280;37534;39.772;2.718;2022-09-09T12:26:00;101340.09;;;45.63;28.59
51460;BME280;37534;39.772;2.718;2022-09-09T12:31:38;101329.84;;;44.71;29.91
51460;BME280;37534;39.772;2.718;2022-09-09T12:34:12;101323.25;;;45.11;29.59
51460;BME280;37534;39.772;2.718;2022-09-09T12:36:40;101324.16;;;45.49;28.45
51460;BME280;37534;39.772;2.718;2022-09-09T12:39:37;101318.56;;;45.99;28.08
51460;BME280;37534;39.772;2.718;2022-09-09T12:42:16;101327.19;;;45.85;27.98
51460;BME280;37534;39.772;2.718;2022-09-09T12:44:54;101315.44;;;46.22;27.24
51460;BME280;37534;39.772;2.718;2022-09-09T12:48:08;101324.19;;;46.24;28.00
51460;BME280;37534;39.772;2.718;2022-09-09T12:50:31;101321.19;;;45.51;28.29
51460;BME280;37534;39.772;2.718;2022-09-09T12:53:00;101313.88;;;45.57;28.57
51460;BME280;37534;39.772;2.718;2022-09-09T12:55:36;101307.75;;;46.14;27.65
51460;BME280;37534;39.772;2.718;2022-09-09T12:58:04;101305.56;;;45.41;28.77
51460;BME280;37534;39.772;2.718;2022-09-09T13:00:32;101310.31;;;46.31;27.67
51460;BME280;37534;39.772;2.718;2022-09-09T13:03:13;101313.97;;;45.67;28.28
51460;BME280;37534;39.772;2.718;2022-09-09T13:05:40;101309.03;;;46.01;27.63
51460;BME280;37534;39.772;2.718;2022-09-09T13:08:10;101299.41;;;45.88;27.80
51460;BME280;37534;39.772;2.718;2022-09-09T13:10:50;101308.50;;;45.67;28.15
51460;BME280;37534;39.772;2.718;2022-09-09T13:13:22;101304.50;;;45.75;27.52
51460;BME280;37534;39.772;2.718;2022-09-09T13:15:51;101307.22;;;46.17;27.29
51460;BME280;37534;39.772;2.718;2022-09-09T13:18:22;101297.72;;;46.20;27.04
51460;BME280;37534;39.772;2.718;2022-09-09T13:20:49;101304.22;;;46.14;27.10
51460;BME280;37534;39.772;2.718;2022-09-09T13:23:18;101310.13;;;45.68;27.88
51460;BME280;37534;39.772;2.718;2022-09-09T13:26:00;101308.44;;;46.42;27.00
51460;BME280;37534;39.772;2.718;2022-09-09T13:28:30;101302.75;;;46.01;27.24
51460;BME280;37534;39.772;2.718;2022-09-09T13:31:01;101314.09;;;44.95;28.41
51460;BME280;37534;39.772;2.718;2022-09-09T13:33:36;101308.28;;;44.87;29.02
51460;BME280;37534;39.772;2.718;2022-09-09T13:36:03;101301.97;;;45.08;28.74
51460;BME280;37534;39.772;2.718;2022-09-09T13:38:35;101300.25;;;44.53;29.04
51460;BME280;37534;39.772;2.718;2022-09-09T13:41:07;101306.69;;;45.18;28.47
51460;BME280;37534;39.772;2.718;2022-09-09T13:43:45;101294.59;;;44.82;28.70
51460;BME280;37534;39.772;2.718;2022-09-09T13:49:02;101291.88;;;44.82;28.86
51460;BME280;37534;39.772;2.718;2022-09-09T13:54:06;101276.47;;;43.53;30.92
51460;BME280;37534;39.772;2.718;2022-09-09T13:56:34;101278.25;;;43.30;31.55
51460;BME280;37534;39.772;2.718;2022-09-09T13:59:00;101271.03;;;43.53;31.22
51460;BME280;37534;39.772;2.718;2022-09-09T14:01:27;101272.66;;;43.88;30.80
51460;BME280;37534;39.772;2.718;2022-09-09T14:03:53;101274.66;;;43.42;31.13
51460;BME280;37534;39.772;2.718;2022-09-09T14:06:19;101274.31;;;43.38;31.11
51460;BME280;37534;39.772;2.718;2022-09-09T14:08:48;101274.66;;;43.13;31.61
51460;BME280;37534;39.772;2.718;2022-09-09T14:11:15;101277.09;;;43.26;32.24
51460;BME280;37534;39.772;2.718;2022-09-09T14:13:41;101272.22;;;43.28;31.36
51460;BME280;37534;39.772;2.718;2022-09-09T14:16:06;101273.19;;;43.22;32.03
51460;BME280;37534;39.772;2.718;2022-09-09T14:18:32;101270.63;;;42.99;32.01
51460;BME280;37534;39.772;2.718;2022-09-09T14:20:59;101282.16;;;42.65;32.38
51460;BME280;37534;39.772;2.718;2022-09-09T14:23:25;101279.56;;;42.59;32.87
51460;BME280;37534;39.772;2.718;2022-09-09T14:25:51;101283.72;;;42.90;32.28
51460;BME280;37534;39.772;2.718;2022-09-09T14:28:17;101274.31;;;42.81;32.49
51460;BME280;37534;39.772;2.718;2022-09-09T14:30:43;101273.44;;;42.63;33.38
51460;BME280;37534;39.772;2.718;2022-09-09T14:33:13;101280.06;;;42.56;33.15
51460;BME280;37534;39.772;2.718;2022-09-09T14:35:40;101280.44;;;42.24;33.08
51460;BME280;37534;39.772;2.718;2022-09-09T14:38:07;101281.94;;;41.84;33.89
51460;BME280;37534;39.772;2.718;2022-09-09T14:40:34;101278.69;;;41.52;34.79
51460;BME280;37534;39.772;2.718;2022-09-09T14:43:00;101286.25;;;41.50;35.23
51460;BME280;37534;39.772;2.718;2022-09-09T14:45:27;101285.22;;;41.20;35.38